Time;durP1;ratioP1;P1;durP2;ratioP2;P2;SDS_P1;SDS_P2;PMS_P1;PMS_P2;Temp;Humidity;BMP_temperature;BMP_pressure;BME280_temperature;BME280_humidity;BME280_pressure;Samples;Min_cycle;Max_cycle;Signal;HPM_P1;HPM_P2
2023/07/09 00:02:20;;;;;;;3.47;2.10;;;;;;;18.52;83.22;100371.28;6272769;28;20053;-73
2023/07/09 00:05:23;;;;;;;6.65;1.83;;;;;;;18.46;82.86;100377.13;6273365;28;20045;-70
2023/07/09 00:08:27;;;;;;;4.10;1.98;;;;;;;18.53;82.72;100374.75;6272424;28;20049;-73
2023/07/09 00:11:27;;;;;;;3.75;1.90;;;;;;;18.49;82.39;100366.31;6271276;28;20064;-73
2023/07/09 00:14:28;;;;;;;3.37;2.00;;;;;;;18.48;81.99;100375.19;6272351;28;20045;-70
2023/07/09 00:17:33;;;;;;;2.42;2.17;;;;;;;18.45;83.03;100378.13;6279379;28;20057;-73
2023/07/09 00:20:35;;;;;;;2.75;1.98;;;;;;;18.48;82.87;100382.28;6261045;28;20045;-73
2023/07/09 00:23:38;;;;;;;4.70;2.25;;;;;;;18.36;83.81;100378.09;6265127;28;20049;-73
2023/07/09 00:26:42;;;;;;;2.35;1.95;;;;;;;18.27;84.43;100377.09;6272313;28;20052;-70
2023/07/09 00:29:44;;;;;;;2.70;1.98;;;;;;;18.25;84.46;100379.03;6254479;28;20133;-70
2023/07/09 00:32:45;;;;;;;5.75;2.30;;;;;;;18.11;84.05;100386.34;6270370;28;20056;-73
2023/07/09 00:35:48;;;;;;;8.63;1.90;;;;;;;18.11;85.73;100375.78;6269892;28;20049;-73
2023/07/09 00:38:51;;;;;;;3.85;1.98;;;;;;;18.11;84.90;100370.50;6257593;28;20084;-73
2023/07/09 00:41:52;;;;;;;3.72;2.05;;;;;;;18.11;84.66;100364.41;6265811;28;20102;-70
2023/07/09 00:44:54;;;;;;;8.60;2.00;;;;;;;18.06;86.46;100366.63;6253282;28;20045;-70
2023/07/09 00:48:06;;;;;;;5.43;2.35;;;;;;;18.01;86.96;100366.19;6282307;28;20114;-73
2023/07/09 00:51:16;;;;;;;3.75;2.40;;;;;;;17.96;85.25;100363.94;6270045;28;20067;-73
2023/07/09 00:54:47;;;;;;;5.10;2.10;;;;;;;17.95;84.18;100366.72;6270828;28;20059;-73
2023/07/09 00:57:56;;;;;;;2.05;1.65;;;;;;;17.84;85.59;100359.72;6260255;28;20046;-71
2023/07/09 01:01:03;;;;;;;5.03;2.10;;;;;;;17.89;85.26;100366.28;6247600;28;20550;-73
2023/07/09 01:04:04;;;;;;;4.20;2.00;;;;;;;17.80;85.94;100360.94;6294926;28;20385;-73
2023/07/09 01:07:05;;;;;;;5.57;1.90;;;;;;;17.80;86.63;100359.13;6270498;28;20106;-73
2023/07/09 01:10:06;;;;;;;2.30;2.10;;;;;;;17.83;85.01;100360.69;6259744;28;20686;-73
2023/07/09 01:13:08;;;;;;;3.22;1.85;;;;;;;17.79;87.01;100367.16;6270388;28;20131;-70
2023/07/09 01:16:09;;;;;;;2.88;1.88;;;;;;;17.78;86.67;100371.63;6270405;28;20060;-73
2023/07/09 01:19:13;;;;;;;5.00;1.70;;;;;;;17.69;88.44;100362.69;6266112;28;20049;-70
2023/07/09 01:22:18;;;;;;;2.58;2.03;;;;;;;17.67;89.04;100367.28;6254119;28;20049;-70
2023/07/09 01:25:19;;;;;;;2.63;2.05;;;;;;;17.71;89.07;100365.22;6259192;28;20119;-73
2023/07/09 01:28:20;;;;;;;2.73;2.07;;;;;;;17.67;88.38;100356.72;6265968;28;20500;-73
2023/07/09 01:31:23;;;;;;;4.45;1.90;;;;;;;17.62;86.90;100364.19;6270555;28;20083;-70
2023/07/09 01:34:25;;;;;;;2.03;1.83;;;;;;;17.58;87.18;100364.56;6269260;28;20053;-70
2023/07/09 01:37:27;;;;;;;2.28;1.88;;;;;;;17.53;88.65;100364.97;6255100;28;20045;-73
2023/07/09 01:40:29;;;;;;;4.30;1.80;;;;;;;17.51;88.34;100367.75;6245436;28;20053;-73
2023/07/09 01:43:31;;;;;;;2.47;1.60;;;;;;;17.53;88.03;100372.88;6260547;28;20095;-70
2023/07/09 01:46:32;;;;;;;3.15;1.75;;;;;;;17.43;89.24;100364.09;6263333;28;20052;-70
2023/07/09 01:49:33;;;;;;;4.15;2.13;;;;;;;17.40;88.34;100375.75;6267084;28;20045;-73
2023/07/09 01:52:34;;;;;;;2.17;1.85;;;;;;;17.40;87.79;100380.16;6260265;28;20095;-73
2023/07/09 01:55:35;;;;;;;2.50;2.30;;;;;;;17.32;87.60;100381.66;6271664;28;20049;-72
2023/07/09 01:58:41;;;;;;;2.88;1.75;;;;;;;17.24;89.00;100380.63;6257049;28;20522;-73
2023/07/09 02:01:42;;;;;;;2.95;2.20;;;;;;;17.26;88.53;100379.53;6260424;28;20049;-73
2023/07/09 02:04:43;;;;;;;2.85;1.85;;;;;;;17.25;90.40;100374.38;6277433;28;20099;-73
2023/07/09 02:07:44;;;;;;;4.22;2.10;;;;;;;17.26;91.86;100370.78;6264707;28;20049;-70
2023/07/09 02:10:48;;;;;;;5.47;2.15;;;;;;;17.26;90.90;100371.63;6253577;28;20056;-70
2023/07/09 02:13:49;;;;;;;3.90;2.30;;;;;;;17.29;89.53;100375.78;6253737;28;20313;-73
2023/07/09 02:16:50;;;;;;;2.20;1.90;;;;;;;17.30;90.95;100374.84;6259029;28;20089;-70
2023/07/09 02:19:51;;;;;;;2.75;1.98;;;;;;;17.29;90.12;100379.25;6258465;28;20052;-70
2023/07/09 02:22:52;;;;;;;2.67;2.10;;;;;;;17.26;89.86;100387.44;6273575;28;20413;-70
2023/07/09 02:25:52;;;;;;;3.03;2.13;;;;;;;17.25;90.00;100383.13;6281044;28;20052;-70
2023/07/09 02:28:53;;;;;;;3.10;2.33;;;;;;;17.24;90.10;100380.63;6274160;28;20136;-70
2023/07/09 02:31:57;;;;;;;2.55;2.08;;;;;;;17.23;89.73;100385.03;6250444;28;20255;-70
2023/07/09 02:34:58;;;;;;;4.43;2.15;;;;;;;17.18;90.17;100387.25;6272050;28;20053;-74
2023/07/09 02:37:59;;;;;;;2.50;1.83;;;;;;;17.17;91.40;100382.09;6276062;28;20083;-70
2023/07/09 02:41:02;;;;;;;2.65;2.00;;;;;;;17.10;91.64;100384.41;6261821;28;20423;-73
2023/07/09 02:44:03;;;;;;;2.13;1.77;;;;;;;17.08;91.85;100387.16;6300709;28;20052;-73
2023/07/09 02:47:04;;;;;;;5.97;1.95;;;;;;;17.01;92.08;100386.03;6299769;28;20086;-73
2023/07/09 02:50:05;;;;;;;9.60;2.10;;;;;;;16.91;93.76;100385.09;6299648;28;20094;-73
2023/07/09 02:53:07;;;;;;;2.35;1.90;;;;;;;16.82;94.21;100386.72;6298021;28;20055;-70
2023/07/09 02:56:07;;;;;;;4.50;2.25;;;;;;;16.82;94.82;100394.63;6299047;28;20053;-70
2023/07/09 02:59:08;;;;;;;3.58;2.20;;;;;;;16.82;94.73;100394.63;6300324;28;20504;-73
2023/07/09 03:02:09;;;;;;;2.17;1.80;;;;;;;16.87;95.17;100395.06;6300199;28;20053;-73
2023/07/09 03:05:10;;;;;;;4.20;1.90;;;;;;;16.78;95.78;100398.44;6283001;28;20060;-73
2023/07/09 03:08:11;;;;;;;2.97;2.20;;;;;;;16.79;96.66;100396.63;6273233;28;20480;-71
2023/07/09 03:11:13;;;;;;;2.50;1.95;;;;;;;16.84;96.17;100400.59;6274044;28;20057;-73
2023/07/09 03:14:15;;;;;;;2.83;2.20;;;;;;;16.94;95.45;100395.38;6296168;28;20056;-73
2023/07/09 03:17:16;;;;;;;3.97;2.25;;;;;;;16.97;95.94;100396.94;6298205;28;20078;-73
2023/07/09 03:20:16;;;;;;;2.47;1.95;;;;;;;16.96;94.85;100396.09;6297963;28;20048;-73
2023/07/09 03:23:17;;;;;;;7.90;2.20;;;;;;;16.96;96.23;100401.38;6297838;28;20563;-73
2023/07/09 03:26:18;;;;;;;2.75;2.10;;;;;;;17.00;96.10;100397.50;6298184;28;20040;-70
2023/07/09 03:29:19;;;;;;;3.63;2.50;;;;;;;17.09;93.70;100402.03;6299692;28;20053;-73
2023/07/09 03:32:22;;;;;;;3.55;2.58;;;;;;;17.08;94.85;100404.78;6297611;28;20082;-73
2023/07/09 03:35:22;;;;;;;3.08;2.05;;;;;;;17.15;94.70;100398.03;6274036;28;20057;-74
2023/07/09 03:38:23;;;;;;;2.50;2.10;;;;;;;17.15;95.33;100398.03;6272855;28;20122;-74
2023/07/09 03:41:25;;;;;;;4.95;2.45;;;;;;;17.17;95.39;100385.56;6273129;28;20103;-71
2023/07/09 03:44:25;;;;;;;3.60;2.43;;;;;;;17.12;97.00;100390.41;6287583;28;20184;-73
2023/07/09 03:47:26;;;;;;;4.78;2.55;;;;;;;17.14;97.47;100393.75;6284952;28;20355;-71
2023/07/09 03:50:27;;;;;;;3.20;2.20;;;;;;;17.14;98.86;100393.75;6272486;28;20057;-71
2023/07/09 03:53:30;;;;;;;4.10;2.53;;;;;;;17.19;98.29;100388.91;6275844;28;20083;-73
2023/07/09 03:56:31;;;;;;;2.47;1.98;;;;;;;17.19;98.39;100394.19;6298917;28;20052;-73
2023/07/09 03:59:31;;;;;;;2.83;2.38;;;;;;;17.25;97.70;100391.03;6298047;28;20048;-70
2023/07/09 04:02:32;;;;;;;3.10;1.85;;;;;;;17.36;96.64;100398.06;6295251;28;20056;-70
2023/07/09 04:05:35;;;;;;;6.70;1.92;;;;;;;17.44;96.09;100407.94;6297205;28;20598;-70
2023/07/09 04:08:36;;;;;;;2.33;1.90;;;;;;;17.50;92.34;100403.00;6296756;28;20114;-73
2023/07/09 04:11:39;;;;;;;4.05;2.08;;;;;;;17.64;91.01;100412.38;6275729;28;20061;-70
2023/07/09 04:14:41;;;;;;;3.42;2.38;;;;;;;17.79;87.78;100404.13;6271975;28;20453;-70
2023/07/09 04:17:41;;;;;;;5.03;2.25;;;;;;;17.91;87.32;100417.16;6272741;28;20550;-70
2023/07/09 04:20:42;;;;;;;2.40;2.10;;;;;;;17.96;87.25;100419.38;6272202;28;20056;-70
2023/07/09 04:23:43;;;;;;;3.47;2.13;;;;;;;18.03;89.90;100417.88;6247045;28;20057;-73
2023/07/09 04:26:44;;;;;;;3.58;2.08;;;;;;;18.14;89.30;100419.59;6246967;28;20045;-70
2023/07/09 04:29:45;;;;;;;5.13;2.53;;;;;;;18.30;88.92;100417.28;6247094;28;20444;-73
2023/07/09 04:32:49;;;;;;;6.18;2.50;;;;;;;18.38;88.36;100421.88;6296605;28;20361;-73
2023/07/09 04:35:50;;;;;;;5.72;2.47;;;;;;;18.40;88.18;100421.75;6297143;28;20049;-71
2023/07/09 04:38:51;;;;;;;6.67;2.90;;;;;;;18.46;90.74;100429.97;6291019;28;20053;-70
2023/07/09 04:41:52;;;;;;;4.57;2.70;;;;;;;18.60;89.94;100434.03;6268302;28;20061;-70
2023/07/09 04:44:53;;;;;;;2.97;2.42;;;;;;;18.69;87.44;100438.50;6261594;28;20058;-73
2023/07/09 04:47:53;;;;;;;3.92;2.80;;;;;;;18.67;83.62;100432.50;6288094;28;20053;-71
2023/07/09 04:50:54;;;;;;;3.97;2.37;;;;;;;18.81;85.69;100447.19;6264966;28;20434;-71
2023/07/09 04:54:02;;;;;;;3.60;2.45;;;;;;;18.90;86.25;100441.06;6270094;28;20057;-73
2023/07/09 04:57:03;;;;;;;4.05;2.92;;;;;;;19.02;87.39;100436.47;6249591;28;20190;-71
2023/07/09 05:00:05;;;;;;;8.13;3.30;;;;;;;19.12;88.09;100437.31;6262753;28;20037;-71
2023/07/09 05:03:08;;;;;;;3.15;2.60;;;;;;;19.21;87.29;100440.94;6255445;28;20585;-71
2023/07/09 05:06:09;;;;;;;5.20;2.80;;;;;;;19.31;87.18;100441.78;6272223;28;20049;-73
2023/07/09 05:09:09;;;;;;;5.73;3.10;;;;;;;19.38;86.39;100446.50;6267149;28;20047;-73
2023/07/09 05:12:10;;;;;;;4.70;2.90;;;;;;;19.47;86.14;100441.19;6252793;28;20156;-71
2023/07/09 05:15:11;;;;;;;4.57;3.15;;;;;;;19.55;83.44;100429.88;6271281;28;20497;-71
2023/07/09 05:18:13;;;;;;;4.60;3.27;;;;;;;19.64;83.74;100442.28;6262430;28;20748;-71
2023/07/09 05:21:14;;;;;;;5.13;3.25;;;;;;;19.78;82.25;100441.00;6265321;28;20133;-73
2023/07/09 05:24:17;;;;;;;4.87;3.07;;;;;;;19.92;83.23;100443.19;6272833;28;20045;-73
2023/07/09 05:27:18;;;;;;;4.50;3.05;;;;;;;20.05;83.43;100449.97;6273450;28;20052;-71
2023/07/09 05:30:19;;;;;;;5.20;3.43;;;;;;;20.21;83.72;100450.19;6273258;28;20060;-71
2023/07/09 05:33:20;;;;;;;4.63;3.28;;;;;;;20.38;79.64;100437.97;6253584;28;20136;-73
2023/07/09 05:36:21;;;;;;;9.05;3.50;;;;;;;20.48;79.46;100446.69;6265723;28;20156;-71
2023/07/09 05:39:22;;;;;;;4.13;3.50;;;;;;;20.68;78.71;100441.31;6287189;28;20483;-73
2023/07/09 05:42:22;;;;;;;3.87;3.17;;;;;;;20.78;76.99;100454.53;6266726;28;20049;-71
2023/07/09 05:45:23;;;;;;;5.03;3.40;;;;;;;20.86;77.75;100450.13;6271190;28;20070;-72
2023/07/09 05:48:24;;;;;;;5.03;3.23;;;;;;;20.81;77.29;100451.56;6257218;28;20045;-71
2023/07/09 05:51:26;;;;;;;4.70;3.17;;;;;;;20.75;78.00;100458.28;6263787;28;20049;-71
2023/07/09 05:54:27;;;;;;;6.60;2.97;;;;;;;20.91;79.02;100457.63;6275120;28;20470;-72
2023/07/09 05:57:27;;;;;;;7.07;3.43;;;;;;;21.09;77.01;100461.13;6261500;28;20050;-72
2023/07/09 06:00:28;;;;;;;10.63;3.93;;;;;;;21.27;76.53;100468.22;6262448;28;20056;-73
2023/07/09 06:03:29;;;;;;;7.10;3.47;;;;;;;21.49;74.94;100465.13;6266420;28;20045;-73
2023/07/09 06:06:31;;;;;;;5.45;3.33;;;;;;;21.71;74.27;100458.47;6254901;28;20052;-71
2023/07/09 06:09:32;;;;;;;4.50;3.78;;;;;;;21.98;71.01;100453.97;6254215;28;20049;-73
2023/07/09 06:12:34;;;;;;;5.30;3.70;;;;;;;22.24;70.88;100464.63;6260824;28;20088;-72
2023/07/09 06:15:35;;;;;;;4.70;3.33;;;;;;;22.41;70.42;100462.03;6263254;28;20053;-71
2023/07/09 06:18:36;;;;;;;6.60;3.93;;;;;;;22.57;69.62;100450.59;6274602;28;20433;-73
2023/07/09 06:21:36;;;;;;;4.83;3.70;;;;;;;22.84;68.01;100458.31;6255962;28;20498;-72
2023/07/09 06:24:37;;;;;;;6.80;3.70;;;;;;;23.00;65.69;100460.19;6249054;28;20319;-73
2023/07/09 06:27:38;;;;;;;9.13;3.50;;;;;;;23.21;66.78;100461.56;6274135;28;20087;-71
2023/07/09 06:30:39;;;;;;;7.37;3.77;;;;;;;23.42;67.51;100461.03;6266415;28;20115;-71
2023/07/09 06:33:39;;;;;;;5.43;2.77;;;;;;;23.53;60.99;100458.88;6261939;28;20095;-71
2023/07/09 06:36:40;;;;;;;3.27;2.57;;;;;;;23.73;64.10;100462.00;6263806;28;20055;-70
2023/07/09 06:39:41;;;;;;;3.87;3.33;;;;;;;23.81;65.70;100458.53;6291293;28;20060;-73
2023/07/09 06:42:42;;;;;;;4.73;2.73;;;;;;;23.85;65.71;100454.50;6268261;28;20127;-71
2023/07/09 06:45:53;;;;;;;3.83;2.87;;;;;;;24.36;63.22;100456.84;6248632;28;20046;-71
2023/07/09 06:48:54;;;;;;;7.35;3.28;;;;;;;24.14;62.88;100456.59;6257744;28;20482;-71
2023/07/09 06:51:55;;;;;;;6.87;2.53;;;;;;;24.47;58.48;100451.09;6272595;28;20053;-70
2023/07/09 06:54:55;;;;;;;4.23;2.70;;;;;;;24.83;55.60;100453.28;6274079;28;20053;-70
2023/07/09 06:57:56;;;;;;;6.23;2.67;;;;;;;25.06;59.90;100447.09;6270749;28;20515;-70
2023/07/09 07:00:57;;;;;;;3.53;2.97;;;;;;;25.32;57.55;100444.91;6278078;28;20051;-73
2023/07/09 07:03:58;;;;;;;7.90;2.85;;;;;;;25.54;59.38;100437.84;6296809;28;20488;-71
2023/07/09 07:06:59;;;;;;;3.47;2.20;;;;;;;25.79;55.38;100432.25;6254464;28;20051;-71
2023/07/09 07:10:00;;;;;;;3.70;2.35;;;;;;;26.08;54.81;100438.66;6258413;28;20052;-74
2023/07/09 07:13:01;;;;;;;3.03;2.13;;;;;;;26.30;50.74;100436.88;6273623;28;20056;-71
2023/07/09 07:16:04;;;;;;;9.27;2.30;;;;;;;26.44;50.67;100440.53;6270195;28;20057;-71
2023/07/09 07:19:05;;;;;;;2.78;2.13;;;;;;;26.67;49.58;100432.38;6272324;28;20132;-71
2023/07/09 07:22:07;;;;;;;2.92;2.20;;;;;;;26.76;49.68;100439.25;6261481;28;20056;-73
2023/07/09 07:38:10;;;;;;;3.30;1.77;;;;;;;27.42;44.31;100451.63;6330172;27;20121;-72
2023/07/09 07:41:11;;;;;;;3.22;1.90;;;;;;;27.66;44.06;100455.72;6334762;28;20483;-71
2023/07/09 07:44:12;;;;;;;4.80;1.83;;;;;;;27.89;43.92;100458.16;6340285;28;20108;-72
2023/07/09 07:47:15;;;;;;;2.58;1.65;;;;;;;27.64;42.77;100450.56;6320181;28;20071;-72
2023/07/09 07:50:16;;;;;;;1.88;1.63;;;;;;;27.97;41.68;100451.81;6318660;28;20067;-73
2023/07/09 07:53:19;;;;;;;2.38;1.60;;;;;;;28.09;41.29;100450.25;6338324;28;20056;-73
2023/07/09 07:56:19;;;;;;;1.92;1.65;;;;;;;28.25;39.62;100451.72;6371196;27;20452;-71
2023/07/09 07:59:20;;;;;;;1.85;1.45;;;;;;;28.30;39.33;100443.94;6321996;28;20061;-74
2023/07/09 08:02:24;;;;;;;2.38;1.77;;;;;;;28.61;39.91;100440.75;6334081;28;20056;-74
2023/07/09 08:05:27;;;;;;;2.67;1.80;;;;;;;28.51;39.72;100449.19;6328509;28;20072;-74
2023/07/09 08:08:28;;;;;;;2.53;1.73;;;;;;;28.68;40.85;100444.28;6331971;28;20059;-71
2023/07/09 08:11:32;;;;;;;2.08;1.58;;;;;;;28.86;40.62;100440.19;6341723;28;20104;-74
2023/07/09 08:14:32;;;;;;;2.42;1.60;;;;;;;28.98;40.48;100443.09;6327549;28;20546;-74
2023/07/09 08:17:33;;;;;;;1.80;1.67;;;;;;;29.24;40.04;100440.47;6323073;28;20129;-72
2023/07/09 08:20:35;;;;;;;4.22;1.67;;;;;;;29.52;40.36;100439.41;6318897;28;20074;-71
2023/07/09 08:23:36;;;;;;;2.95;1.88;;;;;;;29.56;42.42;100445.19;6324990;28;20048;-72
2023/07/09 08:26:37;;;;;;;4.03;2.20;;;;;;;29.56;40.62;100442.50;6324677;28;20043;-72
2023/07/09 08:29:39;;;;;;;3.22;2.00;;;;;;;28.78;40.09;100445.75;6325263;28;20059;-72
2023/07/09 08:32:40;;;;;;;2.45;1.73;;;;;;;29.05;40.35;100442.06;6323445;28;20059;-74
2023/07/09 08:35:44;;;;;;;4.93;2.20;;;;;;;29.69;38.98;100448.69;6329008;28;20075;-72
2023/07/09 08:38:45;;;;;;;2.33;1.58;;;;;;;29.76;37.23;100446.00;6311428;28;20063;-71
2023/07/09 08:41:52;;;;;;;3.10;1.70;;;;;;;30.12;37.89;100456.25;6313890;28;20048;-74
2023/07/09 08:44:58;;;;;;;2.80;1.77;;;;;;;29.87;37.89;100445.34;6312622;28;20389;-72
2023/07/09 08:48:06;;;;;;;2.95;1.52;;;;;;;30.37;39.04;100446.66;6318331;28;20491;-72
2023/07/09 08:51:36;;;;;;;2.25;1.63;;;;;;;30.30;39.17;100441.31;6312590;28;20143;-74
2023/07/09 08:54:37;;;;;;;2.75;1.77;;;;;;;30.13;36.73;100449.00;6304175;28;20516;-74
2023/07/09 08:57:41;;;;;;;2.72;1.90;;;;;;;30.39;35.69;100445.38;6301700;28;20435;-74
2023/07/09 09:01:08;;;;;;;2.55;1.80;;;;;;;29.99;37.91;100442.03;6330501;27;20404;-74
2023/07/09 09:04:21;;;;;;;2.42;1.52;;;;;;;29.66;37.12;100435.66;6271674;28;20132;-73
2023/07/09 09:07:35;;;;;;;2.05;1.65;;;;;;;30.01;38.14;100440.75;6303302;28;20074;-74
2023/07/09 09:10:48;;;;;;;1.80;1.65;;;;;;;30.12;36.54;100441.97;6301703;28;20052;-71
2023/07/09 09:13:52;;;;;;;2.40;1.63;;;;;;;30.01;36.31;100440.75;6308583;28;20189;-71
2023/07/09 09:16:53;;;;;;;3.13;1.90;;;;;;;30.55;34.94;100437.88;6317776;28;20040;-72
2023/07/09 09:19:57;;;;;;;4.78;2.10;;;;;;;30.95;36.77;100432.25;6308264;28;20399;-72
2023/07/09 09:23:07;;;;;;;4.07;1.80;;;;;;;30.96;35.67;100434.72;6309517;28;20044;-72
2023/07/09 09:26:34;;;;;;;3.40;1.60;;;;;;;30.86;35.69;100431.66;6313175;28;20096;-72
2023/07/09 09:29:34;;;;;;;2.15;1.67;;;;;;;30.54;35.20;100439.75;6330664;28;20135;-73
2023/07/09 09:32:44;;;;;;;3.78;1.70;;;;;;;30.88;35.81;100437.69;6319451;28;20050;-72
2023/07/09 09:35:47;;;;;;;2.63;1.73;;;;;;;30.71;34.84;100448.13;6311754;28;20384;-71
2023/07/09 09:38:50;;;;;;;5.40;1.90;;;;;;;31.21;37.75;100437.41;6302398;28;20399;-71
2023/07/09 09:41:57;;;;;;;3.20;1.80;;;;;;;31.06;33.90;100440.44;6326717;28;20093;-71
2023/07/09 09:44:57;;;;;;;3.22;1.65;;;;;;;31.27;32.77;100436.53;6321291;28;20479;-72
2023/07/09 09:48:04;;;;;;;2.92;1.80;;;;;;;31.69;37.62;100430.56;6321887;28;20055;-71
2023/07/09 09:51:05;;;;;;;3.15;1.50;;;;;;;31.81;34.06;100426.06;6323132;28;20055;-71
2023/07/09 09:54:24;;;;;;;3.30;1.70;;;;;;;31.94;34.19;100433.22;6345121;28;20073;-72
2023/07/09 09:57:25;;;;;;;5.57;1.90;;;;;;;31.79;35.34;100419.25;6301216;28;20044;-72
2023/07/09 10:00:27;;;;;;;;;;;;;;;32.44;32.37;100432.19;6317600;28;20047;-71
2023/07/09 10:03:36;;;;;;;2.83;1.70;;;;;;;32.81;36.06;100414.03;6312292;28;19926;-71
2023/07/09 10:06:44;;;;;;;2.88;1.80;;;;;;;32.29;32.64;100414.53;6308180;28;20098;-72
2023/07/09 10:09:54;;;;;;;1.63;1.50;;;;;;;32.71;34.60;100421.88;6320961;28;20505;-71
2023/07/09 10:13:28;;;;;;;4.35;2.03;;;;;;;33.19;33.70;100415.50;6305952;28;20470;-72
2023/07/09 10:16:37;;;;;;;2.75;1.73;;;;;;;32.41;31.64;100421.84;6302962;28;20048;-71
2023/07/09 10:19:53;;;;;;;4.53;1.98;;;;;;;32.80;32.35;100414.25;6302589;28;20473;-73
2023/07/09 10:23:17;;;;;;;2.60;1.67;;;;;;;32.92;30.83;100406.97;6318003;28;20044;-73
2023/07/09 10:26:32;;;;;;;5.53;1.67;;;;;;;32.26;34.32;100412.28;6315566;28;20478;-74
2023/07/09 10:30:17;;;;;;;2.75;1.65;;;;;;;32.96;32.79;100407.34;6306402;28;20098;-71
2023/07/09 10:33:30;;;;;;;1.80;1.38;;;;;;;33.13;29.63;100397.50;6310691;28;20063;-75
2023/07/09 10:36:46;;;;;;;2.25;1.70;;;;;;;32.96;31.04;100405.47;6308083;28;20048;-74
2023/07/09 10:39:48;;;;;;;3.53;1.48;;;;;;;33.57;31.46;100399.88;6321757;28;20514;-74
2023/07/09 10:42:55;;;;;;;2.25;1.52;;;;;;;33.22;29.82;100403.41;6317063;28;20056;-72
2023/07/09 10:46:05;;;;;;;3.42;1.70;;;;;;;33.37;31.45;100401.03;6311718;28;20080;-72
2023/07/09 10:49:11;;;;;;;1.52;1.33;;;;;;;33.70;31.20;100402.34;6306480;28;20097;-71
2023/07/09 10:52:25;;;;;;;2.42;1.63;;;;;;;33.61;30.22;100401.06;6326459;27;20507;-73
2023/07/09 10:55:37;;;;;;;2.08;1.65;;;;;;;33.63;29.50;100399.75;6322368;28;20052;-74
2023/07/09 10:58:54;;;;;;;3.47;1.70;;;;;;;32.77;30.12;100395.81;6315890;28;20079;-74
2023/07/09 11:02:13;;;;;;;1.58;1.40;;;;;;;32.90;30.12;100390.19;6306575;28;20393;-73
2023/07/09 11:05:14;;;;;;;2.00;1.33;;;;;;;32.44;29.73;100395.22;6310526;28;20040;-74
2023/07/09 11:08:24;;;;;;;2.75;1.58;;;;;;;32.74;33.22;100394.41;6321552;28;20131;-73
2023/07/09 11:11:37;;;;;;;2.97;1.75;;;;;;;33.44;31.38;100390.09;6328892;28;20071;-73
2023/07/09 11:14:56;;;;;;;3.00;1.70;;;;;;;33.15;28.57;100392.69;6312128;28;20112;-73
2023/07/09 11:17:59;;;;;;;1.88;1.65;;;;;;;32.96;28.97;100389.25;6312987;28;20044;-74
2023/07/09 11:21:15;;;;;;;7.45;1.60;;;;;;;33.16;30.44;100383.53;6325487;28;20066;-74
2023/07/09 11:25:10;;;;;;;1.65;1.42;;;;;;;33.56;29.93;100379.28;6312168;28;20067;-73
2023/07/09 11:28:11;;;;;;;1.92;1.60;;;;;;;32.69;27.93;100378.06;6219750;28;20066;-74
2023/07/09 11:31:36;;;;;;;3.20;1.58;;;;;;;32.69;26.77;100378.88;6213892;28;20568;-74
2023/07/09 11:34:45;;;;;;;2.15;1.40;;;;;;;32.82;29.12;100375.13;6304947;28;20044;-75
2023/07/09 11:37:46;;;;;;;2.35;1.58;;;;;;;33.48;28.81;100378.59;6324664;28;20102;-74
2023/07/09 11:40:53;;;;;;;1.83;1.55;;;;;;;32.97;30.44;100372.00;6309157;28;20491;-71
2023/07/09 11:44:05;;;;;;;2.33;1.40;;;;;;;32.85;27.85;100373.84;6326962;28;20051;-72
2023/07/09 11:47:27;;;;;;;1.75;1.20;;;;;;;33.42;27.99;100370.59;6311460;28;20098;-73
2023/07/09 11:50:30;;;;;;;2.80;1.70;;;;;;;34.14;31.31;100369.41;6296409;28;20044;-73
2023/07/09 11:54:00;;;;;;;1.75;1.50;;;;;;;33.85;28.06;100369.34;6337144;28;20431;-73
2023/07/09 11:57:02;;;;;;;1.80;1.50;;;;;;;33.79;28.40;100364.91;6301557;28;20084;-74
2023/07/09 12:00:04;;;;;;;1.55;1.40;;;;;;;34.07;29.32;100359.50;6320642;28;20044;-75
2023/07/09 12:03:07;;;;;;;3.08;1.50;;;;;;;32.97;27.83;100363.88;6317817;28;20553;-73
2023/07/09 12:06:19;;;;;;;1.65;1.30;;;;;;;33.52;27.70;100360.84;6311778;28;20061;-73
2023/07/09 12:09:23;;;;;;;2.70;1.80;;;;;;;33.67;25.96;100349.53;6308346;28;20056;-71
2023/07/09 12:12:26;;;;;;;1.90;1.45;;;;;;;32.36;26.77;100348.81;6315219;28;20499;-71
2023/07/09 12:15:29;;;;;;;2.00;1.50;;;;;;;33.41;26.88;100345.44;6325529;28;20044;-71
2023/07/09 12:18:30;;;;;;;2.65;1.60;;;;;;;33.87;26.40;100337.47;6322440;28;20480;-73
2023/07/09 12:21:34;;;;;;;3.15;1.80;;;;;;;33.72;28.04;100348.81;6307762;28;20075;-71
2023/07/09 12:24:44;;;;;;;1.60;1.50;;;;;;;34.24;25.49;100334.38;6327003;28;20060;-71
2023/07/09 12:27:48;;;;;;;1.58;1.42;;;;;;;34.34;28.44;100339.16;6347327;28;20083;-72
2023/07/09 12:30:50;;;;;;;1.83;1.50;;;;;;;34.04;28.84;100324.00;6320346;28;20502;-70
2023/07/09 12:33:54;;;;;;;3.20;1.80;;;;;;;34.11;26.36;100324.66;6322755;28;20043;-70
2023/07/09 12:36:56;;;;;;;1.90;1.65;;;;;;;33.69;25.75;100322.25;6303538;28;20491;-72
2023/07/09 12:40:02;;;;;;;3.72;1.70;;;;;;;33.68;29.74;100326.00;6305968;28;20050;-74
2023/07/09 12:43:04;;;;;;;2.42;1.55;;;;;;;33.56;26.80;100317.88;6320725;28;20039;-74
2023/07/09 12:46:07;;;;;;;2.83;1.70;;;;;;;34.22;27.36;100320.28;6311395;28;20071;-74
2023/07/09 12:49:23;;;;;;;1.50;1.40;;;;;;;34.47;28.32;100306.34;6316174;28;20117;-74
2023/07/09 12:52:26;;;;;;;2.10;1.48;;;;;;;33.94;28.69;100321.91;6307314;28;20098;-74
2023/07/09 12:55:31;;;;;;;2.75;1.70;;;;;;;34.27;27.19;100321.19;6317034;28;20138;-74
2023/07/09 12:58:39;;;;;;;3.10;1.80;;;;;;;33.89;28.98;100319.09;6316029;28;20048;-74
2023/07/09 13:01:40;;;;;;;1.50;1.40;;;;;;;34.01;31.00;100321.75;6304919;28;20048;-73
2023/07/09 13:04:41;;;;;;;2.15;1.50;;;;;;;34.20;28.97;100317.81;6315980;28;20540;-74
2023/07/09 13:07:59;;;;;;;1.60;1.50;;;;;;;33.91;26.89;100312.41;6322125;28;20056;-74
2023/07/09 13:11:01;;;;;;;1.58;1.48;;;;;;;33.88;27.75;100304.75;6308840;28;20048;-74
2023/07/09 13:14:18;;;;;;;2.38;1.50;;;;;;;33.82;30.58;100313.84;6312339;28;20686;-74
2023/07/09 13:17:18;;;;;;;2.22;1.58;;;;;;;33.31;30.62;100301.94;6340237;27;20124;-72
2023/07/09 13:20:19;;;;;;;1.52;1.42;;;;;;;33.25;30.33;100303.72;6305201;28;20045;-74
2023/07/09 13:23:26;;;;;;;4.43;1.40;;;;;;;32.92;29.25;100302.41;6302927;28;20105;-73
2023/07/09 13:26:27;;;;;;;1.80;1.40;;;;;;;31.83;29.71;100296.38;6302705;28;20503;-73
2023/07/09 13:29:28;;;;;;;2.35;1.40;;;;;;;32.76;29.50;100303.13;6304725;28;20099;-72
2023/07/09 13:32:32;;;;;;;4.60;1.73;;;;;;;32.87;29.82;100296.91;6305614;28;20057;-74
2023/07/09 13:35:32;;;;;;;2.22;1.55;;;;;;;33.24;28.70;100299.38;6305291;28;20426;-73
2023/07/09 13:38:33;;;;;;;2.95;1.80;;;;;;;33.03;29.86;100297.25;6309140;28;20049;-72
2023/07/09 13:41:37;;;;;;;2.38;1.50;;;;;;;32.80;28.53;100295.38;6307087;28;20052;-70
2023/07/09 13:44:42;;;;;;;1.75;1.50;;;;;;;33.04;31.15;100302.41;6304036;28;20055;-70
2023/07/09 13:47:43;;;;;;;1.70;1.40;;;;;;;32.85;30.51;100298.19;6309700;28;20040;-70
2023/07/09 13:50:45;;;;;;;5.22;1.90;;;;;;;32.36;28.84;100301.03;6324519;28;20093;-70
2023/07/09 13:53:48;;;;;;;1.98;1.65;;;;;;;32.30;29.30;100297.38;6322371;28;20052;-70
2023/07/09 13:56:50;;;;;;;2.38;1.70;;;;;;;32.46;30.94;100303.19;6323405;28;20400;-73
2023/07/09 13:59:53;;;;;;;1.70;1.42;;;;;;;32.09;32.31;100301.44;6320624;28;20091;-74
2023/07/09 14:02:53;;;;;;;1.88;1.60;;;;;;;32.23;28.75;100291.28;6298402;28;20114;-73
2023/07/09 14:05:54;;;;;;;;;;;;;;;32.02;29.47;100295.31;6309266;28;20075;-73
2023/07/09 14:08:55;;;;;;;2.97;1.37;;;;;;;32.02;30.80;100295.31;6321915;28;19919;-73
2023/07/09 14:11:55;;;;;;;;;;;;;;;32.24;29.91;100301.00;6322473;28;20059;-74
2023/07/09 14:15:00;;;;;;;2.10;1.53;;;;;;;32.02;29.19;100294.47;6322266;28;19963;-74
2023/07/09 14:18:01;;;;;;;1.77;1.50;;;;;;;32.09;30.71;100290.63;6317871;28;20431;-75
2023/07/09 14:21:09;;;;;;;;;;;;;;;31.79;28.32;100296.00;6309766;28;20062;-74
2023/07/09 14:24:20;;;;;;;1.67;1.38;;;;;;;32.16;29.62;100289.72;6296753;28;19927;-73
2023/07/09 14:27:20;;;;;;;1.75;1.40;;;;;;;32.31;28.58;100290.13;6326620;28;20044;-73
2023/07/09 14:30:23;;;;;;;;;;;;;;;32.05;30.89;100289.44;6323498;28;20109;-74
2023/07/09 14:33:24;;;;;;;2.67;1.50;;;;;;;31.40;28.21;100284.66;6322989;28;20383;-72